Airfield :
LOGIN :

Register | Disclaimer

   EN    FR    IT 

 










Legend :    VFR   Marginal VFR   IFR   Intensive IFR   Very Intensive IFR
Visi :
Ceiling :
>= 8 km
>= 3000ft
5 to 8 km
1000 to 3000 ft
1500m to 5 km
500 to 1000 ft
800 to 1500m
200 to 500 ft
< 800m
< 200 ft
Symbols :   Thunderstorms  Fog  Heavy snow  Heavy precipitations  Wind > 20 kt
SIGMETs :     Misc.  Thunderstorms  Icing  Turbulence  Mountain Waves  Volcanic Ashes







- Airport Elevation : 26 ft


ETNT - Wittmundhaven AB

CURRENT METAR :
  • 161120Z 23017G29KT 4000 -RADZ BR SCT005 BKN008 07/06 Q1003 GRN GRN TEMPO YLO

EXPIRED METARs :
  • 161050Z 23014G26KT 4000 -RADZ BR FEW004 BKN007 07/06 Q1003 GRN WHT TEMPO YLO
  • 161040Z 23014KT 6000 -RADZ SCT004 BKN007 07/06 Q1004 GRN WHT TEMPO YLO
  • 161020Z 23015G28KT 4000 -RADZ BR FEW005 BKN007 07/06 Q1004 GRN WHT TEMPO YLO
  • 160920Z 23010KT 7000 -RADZ FEW006 BKN008 07/06 Q1005 GRN WHT TEMPO YLO
  • 160906Z 23013KT 7000 -RADZ FEW006 BKN008 07/06 Q1005 GRN WHT TEMPO YLO
  • 160852Z 23012KT 3200 -RADZ BR BKN008 BKN030 07/06 Q1005 YLO WHT TEMPO GRN
  • 160847Z 23014KT 5000 -RADZ BR BKN009 BKN030 08/05 Q1005 GRN WHT TEMPO GRN

TAF TAF ETNT
Valid from the 16 at 12:00 until the 16 at 21:00 UTC


161104Z 1612/1621 24015G25KT 9999 NSW SCT006 BKN010
TEMPO 1612/1921 23020G30KT 3000 RADZ BKN006 BY ETGL
No reported NOTAMs for that airfield.



MET'MAP, your aeronautical weather chart ! - Copyright ORBIFLY December 2007 - Disclaimer

ORBIFLY MET'MAP TEAM :

Programming & Development : Alexandra Zaïnal
Concept & Development : Baudouin d'Aumeries
Co-Development & Prog : Marc-Olivier Méhu
Technical & hardware support : Manuel Goepfert

Contact : metmap@orbifly.com




SOURCES & CREDITS :

   NOAA